createdAt,value
2023-01-18T00:00:34.995Z,-2.30
2023-01-18T00:03:02.756Z,-2.30
2023-01-18T00:05:30.754Z,-2.30
2023-01-18T00:07:58.505Z,-2.30
2023-01-18T00:10:26.287Z,-2.30
2023-01-18T00:12:55.808Z,-2.30
2023-01-18T00:15:23.795Z,-2.30
2023-01-18T00:17:52.488Z,-2.40
2023-01-18T00:20:22.231Z,-2.40
2023-01-18T00:22:50.084Z,-2.40
2023-01-18T00:25:18.316Z,-2.40
2023-01-18T00:27:47.693Z,-2.40
2023-01-18T00:30:18.924Z,-2.40
2023-01-18T00:32:46.755Z,-2.50
2023-01-18T00:35:15.341Z,-2.50
2023-01-18T00:37:45.031Z,-2.50
2023-01-18T00:40:13.063Z,-2.50
2023-01-18T00:42:59.962Z,-2.50
2023-01-18T00:45:29.454Z,-2.50
2023-01-18T00:47:58.150Z,-2.50
2023-01-18T00:50:25.966Z,-2.50
2023-01-18T00:52:57.705Z,-2.50
2023-01-18T00:55:25.752Z,-2.50
2023-01-18T00:57:53.525Z,-2.50
2023-01-18T01:00:26.577Z,-2.50
2023-01-18T01:02:56.642Z,-2.50
2023-01-18T01:05:43.909Z,-2.60
2023-01-18T01:08:16.755Z,-2.50
2023-01-18T01:10:46.040Z,-2.50
2023-01-18T01:13:32.334Z,-2.50
2023-01-18T01:16:17.672Z,-2.60
2023-01-18T01:19:04.601Z,-2.60
2023-01-18T01:21:49.694Z,-2.60
2023-01-18T01:24:35.076Z,-2.60
2023-01-18T01:27:02.834Z,-2.60
2023-01-18T01:29:30.556Z,-2.60
2023-01-18T01:31:58.309Z,-2.60
2023-01-18T01:34:29.606Z,-2.60
2023-01-18T01:36:57.680Z,-2.60
2023-01-18T01:39:25.479Z,-2.60
2023-01-18T01:41:53.216Z,-2.70
2023-01-18T01:44:44.954Z,-2.70
2023-01-18T01:47:17.059Z,-2.70
2023-01-18T01:49:49.748Z,-2.70
2023-01-18T01:52:23.932Z,-2.70
2023-01-18T01:54:56.224Z,-2.70
2023-01-18T01:57:27.397Z,-2.70
2023-01-18T02:00:00.034Z,-2.70
2023-01-18T02:02:28.563Z,-2.70
2023-01-18T02:04:59.064Z,-2.70
2023-01-18T02:07:28.711Z,-2.70
2023-01-18T02:09:58.119Z,-2.70
2023-01-18T02:12:27.116Z,-2.70
2023-01-18T02:14:56.035Z,-2.70
2023-01-18T02:17:38.459Z,-2.70
2023-01-18T02:20:39.803Z,-2.80
2023-01-18T02:23:31.963Z,-2.80
2023-01-18T02:26:31.783Z,-2.80
2023-01-18T02:29:06.828Z,-2.80
2023-01-18T02:31:39.313Z,-2.80
2023-01-18T02:34:16.518Z,-2.80
2023-01-18T02:36:56.169Z,-2.90
2023-01-18T02:39:38.282Z,-2.90
2023-01-18T02:42:30.575Z,-2.90
2023-01-18T02:45:20.584Z,-2.90
2023-01-18T02:47:49.112Z,-2.90
2023-01-18T02:50:24.192Z,-2.90
2023-01-18T02:52:53.467Z,-2.90
2023-01-18T02:55:30.336Z,-2.90
2023-01-18T02:58:04.074Z,-2.90
2023-01-18T03:00:35.520Z,-2.90
2023-01-18T03:03:05.569Z,-3.00
2023-01-18T03:05:35.818Z,-3.00
2023-01-18T03:08:10.055Z,-3.00
2023-01-18T03:10:44.864Z,-3.00
2023-01-18T03:13:18.856Z,-3.00
2023-01-18T03:15:53.213Z,-3.00
2023-01-18T03:18:28.724Z,-3.00
2023-01-18T03:20:57.991Z,-3.00
2023-01-18T03:23:40.635Z,-3.00
2023-01-18T03:26:10.411Z,-3.00
2023-01-18T03:28:58.388Z,-3.00
2023-01-18T03:31:51.314Z,-3.10
2023-01-18T03:34:23.810Z,-3.10
2023-01-18T03:36:54.564Z,-3.10
2023-01-18T03:39:28.462Z,-3.10
2023-01-18T03:41:59.560Z,-3.10
2023-01-18T03:44:33.483Z,-3.20
2023-01-18T03:47:04.015Z,-3.20
2023-01-18T03:49:33.067Z,-3.20
2023-01-18T03:52:16.209Z,-3.20
2023-01-18T03:54:52.995Z,-3.20
2023-01-18T03:57:27.053Z,-3.20
2023-01-18T03:59:55.084Z,-3.20
2023-01-18T04:02:24.888Z,-3.20
2023-01-18T04:04:57.283Z,-3.20
2023-01-18T04:07:26.365Z,-3.20
2023-01-18T04:09:54.150Z,-3.20
2023-01-18T04:12:21.875Z,-3.20
2023-01-18T04:14:49.613Z,-3.20
2023-01-18T04:17:18.152Z,-3.20
2023-01-18T04:19:47.448Z,-3.20
2023-01-18T04:22:15.613Z,-3.20
2023-01-18T04:24:43.342Z,-3.20
2023-01-18T04:27:11.084Z,-3.20
2023-01-18T04:29:39.615Z,-3.20
2023-01-18T04:32:07.329Z,-3.20
2023-01-18T04:34:35.574Z,-3.20
2023-01-18T04:37:04.915Z,-3.20
2023-01-18T04:39:32.635Z,-3.20
2023-01-18T04:42:00.358Z,-3.20
2023-01-18T04:44:28.073Z,-3.20
2023-01-18T04:46:56.085Z,-3.20
2023-01-18T04:49:24.079Z,-3.20
2023-01-18T04:51:51.794Z,-3.20
2023-01-18T04:54:20.851Z,-3.20
2023-01-18T04:56:48.582Z,-3.30
2023-01-18T04:59:17.293Z,-3.30
2023-01-18T05:01:45.114Z,-3.30
2023-01-18T05:04:12.854Z,-3.30
2023-01-18T05:06:40.570Z,-3.30
2023-01-18T05:09:08.297Z,-3.30
2023-01-18T05:11:37.393Z,-3.30
2023-01-18T05:14:05.101Z,-3.30
2023-01-18T05:16:32.839Z,-3.30
2023-01-18T05:19:00.576Z,-3.30
2023-01-18T05:21:28.558Z,-3.30
2023-01-18T05:23:56.301Z,-3.30
2023-01-18T05:26:25.307Z,-3.40
2023-01-18T05:28:58.317Z,-3.30
2023-01-18T05:31:27.414Z,-3.30
2023-01-18T05:33:56.768Z,-3.30
2023-01-18T05:36:24.503Z,-3.30
2023-01-18T05:38:52.212Z,-3.30
2023-01-18T05:41:20.933Z,-3.30
2023-01-18T05:43:48.747Z,-3.30
2023-01-18T05:46:17.825Z,-3.30
2023-01-18T05:48:45.536Z,-3.30
2023-01-18T05:51:14.121Z,-3.30
2023-01-18T05:53:42.009Z,-3.30
2023-01-18T05:56:10.380Z,-3.30
2023-01-18T05:58:38.295Z,-3.30
2023-01-18T06:01:07.491Z,-3.30
2023-01-18T06:03:37.238Z,-3.30
2023-01-18T06:06:05.120Z,-3.30
2023-01-18T06:08:33.795Z,-3.30
2023-01-18T06:11:02.167Z,-3.30
2023-01-18T06:13:31.705Z,-3.30
2023-01-18T06:16:00.825Z,-3.40
2023-01-18T06:18:30.462Z,-3.40
2023-01-18T06:21:01.605Z,-3.40
2023-01-18T06:23:29.894Z,-3.40
2023-01-18T06:25:57.768Z,-3.40
2023-01-18T06:28:25.963Z,-3.40
2023-01-18T06:30:54.852Z,-3.40
2023-01-18T06:33:22.938Z,-3.50
2023-01-18T06:35:50.747Z,-3.50
2023-01-18T06:38:20.561Z,-3.50
2023-01-18T06:40:48.305Z,-3.50
2023-01-18T06:43:16.790Z,-3.50
2023-01-18T06:45:44.632Z,-3.50
2023-01-18T06:48:12.419Z,-3.50
2023-01-18T06:50:40.142Z,-3.50
2023-01-18T06:53:07.871Z,-3.60
2023-01-18T06:55:36.931Z,-3.50
2023-01-18T06:58:04.669Z,-3.60
2023-01-18T07:00:32.402Z,-3.60
2023-01-18T07:03:00.405Z,-3.60
2023-01-18T07:05:28.313Z,-3.60
2023-01-18T07:07:56.029Z,-3.60
2023-01-18T07:10:23.724Z,-3.60
2023-01-18T07:12:52.798Z,-3.60
2023-01-18T07:15:22.216Z,-3.60
2023-01-18T07:17:51.144Z,-3.60
2023-01-18T07:20:19.774Z,-3.60
2023-01-18T07:22:51.487Z,-3.70
2023-01-18T07:25:20.528Z,-3.70
2023-01-18T07:27:49.780Z,-3.70
2023-01-18T07:30:19.816Z,-3.70
2023-01-18T07:32:49.675Z,-3.70
2023-01-18T07:35:18.261Z,-3.70
2023-01-18T07:37:49.596Z,-3.70
2023-01-18T07:40:18.142Z,-3.70
2023-01-18T07:42:45.949Z,-3.70
2023-01-18T07:45:13.839Z,-3.70
2023-01-18T07:47:43.432Z,-3.70
2023-01-18T07:50:13.953Z,-3.80
2023-01-18T07:52:41.730Z,-3.80
2023-01-18T07:55:10.095Z,-3.80
2023-01-18T07:57:37.817Z,-3.80
2023-01-18T08:00:07.651Z,-3.80
2023-01-18T08:02:35.611Z,-3.80
2023-01-18T08:05:05.127Z,-3.80
2023-01-18T08:07:33.419Z,-3.80
2023-01-18T08:10:01.128Z,-3.80
2023-01-18T08:12:28.877Z,-3.80
2023-01-18T08:14:56.588Z,-3.80
2023-01-18T08:17:24.287Z,-3.80
2023-01-18T08:19:52.022Z,-3.70
2023-01-18T08:22:21.083Z,-3.70
2023-01-18T08:24:48.780Z,-3.70
2023-01-18T08:27:16.596Z,-3.70
2023-01-18T08:29:44.492Z,-3.70
2023-01-18T08:32:12.202Z,-3.70
2023-01-18T08:34:40.077Z,-3.70
2023-01-18T08:37:07.822Z,-3.60
2023-01-18T08:39:36.862Z,-3.60
2023-01-18T08:42:04.793Z,-3.60
2023-01-18T08:44:32.508Z,-3.50
2023-01-18T08:47:00.213Z,-3.50
2023-01-18T08:49:27.950Z,-3.50
2023-01-18T08:51:56.682Z,-3.50
2023-01-18T08:54:24.518Z,-3.40
2023-01-18T08:56:53.842Z,-3.40
2023-01-18T08:59:23.625Z,-3.30
2023-01-18T09:01:51.396Z,-3.20
2023-01-18T09:04:19.325Z,-3.20
2023-01-18T09:06:51.212Z,-3.10
2023-01-18T09:09:19.652Z,-3.10
2023-01-18T09:11:47.478Z,-3.00
2023-01-18T09:14:16.543Z,-3.00
2023-01-18T09:16:44.278Z,-3.00
2023-01-18T09:19:12.424Z,-2.90
2023-01-18T09:21:40.419Z,-2.90
2023-01-18T09:24:08.411Z,-2.80
2023-01-18T09:26:36.130Z,-2.80
2023-01-18T09:29:03.929Z,-2.70
2023-01-18T09:31:33.212Z,-2.70
2023-01-18T09:34:18.030Z,-2.60
2023-01-18T09:36:47.183Z,-2.60
2023-01-18T09:39:14.957Z,-2.50
2023-01-18T09:41:44.306Z,-2.50
2023-01-18T09:44:21.183Z,-2.50
2023-01-18T09:46:54.773Z,-2.40
2023-01-18T09:49:29.607Z,-2.40
2023-01-18T09:52:07.845Z,-2.40
2023-01-18T09:54:42.886Z,-2.30
2023-01-18T09:57:20.721Z,-2.30
2023-01-18T09:59:55.352Z,-2.30
2023-01-18T10:02:27.005Z,-2.20
2023-01-18T10:04:58.784Z,-2.20
2023-01-18T10:07:30.190Z,-2.10
2023-01-18T10:10:02.002Z,-2.00
2023-01-18T10:12:37.232Z,-2.00
2023-01-18T10:15:10.517Z,-2.00
2023-01-18T10:17:41.990Z,-2.00
2023-01-18T10:20:17.870Z,-1.90
2023-01-18T10:22:49.840Z,-1.90
2023-01-18T10:25:23.916Z,-1.90
2023-01-18T10:28:12.730Z,-1.80
2023-01-18T10:30:55.936Z,-1.80
2023-01-18T10:33:28.218Z,-1.70
2023-01-18T10:35:59.437Z,-1.70
2023-01-18T10:38:29.910Z,-1.70
2023-01-18T10:40:59.148Z,-1.70
2023-01-18T10:43:28.758Z,-1.60
2023-01-18T10:45:56.952Z,-1.50
2023-01-18T10:48:29.362Z,-1.50
2023-01-18T10:50:59.362Z,-1.50
2023-01-18T10:53:31.332Z,-1.40
2023-01-18T10:56:05.641Z,-1.40
2023-01-18T10:58:37.741Z,-1.40
2023-01-18T11:01:06.579Z,-1.40
2023-01-18T11:03:44.296Z,-1.40
2023-01-18T11:06:12.067Z,-1.30
2023-01-18T11:08:39.822Z,-1.20
2023-01-18T11:11:16.286Z,-1.20
2023-01-18T11:13:45.549Z,-1.20
2023-01-18T11:16:17.536Z,-1.10
2023-01-18T11:19:04.193Z,-1.10
2023-01-18T11:21:45.507Z,-1.00
2023-01-18T11:24:17.387Z,-1.00
2023-01-18T11:26:55.132Z,-0.90
2023-01-18T11:29:28.267Z,-0.90
2023-01-18T11:31:56.912Z,-0.80
2023-01-18T11:34:29.997Z,-0.80
2023-01-18T11:36:59.408Z,-0.70
2023-01-18T11:39:30.459Z,-0.70
2023-01-18T11:42:25.337Z,-0.60
2023-01-18T11:45:06.004Z,-0.60
2023-01-18T11:47:55.046Z,-0.60
2023-01-18T11:50:30.177Z,-0.50
2023-01-18T11:53:04.801Z,-0.40
2023-01-18T11:55:37.843Z,-0.40
2023-01-18T11:58:13.838Z,-0.30
2023-01-18T12:00:53.357Z,-0.30
2023-01-18T12:03:42.129Z,-0.20
2023-01-18T12:06:22.462Z,-0.10
2023-01-18T12:09:07.929Z,-0.10
2023-01-18T12:11:53.547Z,0.00
2023-01-18T12:14:48.141Z,0.00
2023-01-18T12:17:29.777Z,0.10
2023-01-18T12:20:10.332Z,0.10
2023-01-18T12:23:12.021Z,0.10
2023-01-18T12:26:11.639Z,0.20
2023-01-18T12:28:57.824Z,0.20
2023-01-18T12:31:36.662Z,0.30
2023-01-18T12:34:12.499Z,0.30
2023-01-18T12:37:03.743Z,0.30
2023-01-18T12:39:52.503Z,0.40
2023-01-18T12:42:30.437Z,0.40
2023-01-18T12:45:12.258Z,0.50
2023-01-18T12:47:47.465Z,0.50
2023-01-18T12:50:23.244Z,0.50
2023-01-18T12:52:54.966Z,0.60
2023-01-18T12:55:26.621Z,0.60
2023-01-18T12:57:58.727Z,0.60
2023-01-18T13:00:32.894Z,0.60
2023-01-18T13:03:00.769Z,0.70
2023-01-18T13:05:37.744Z,0.70
2023-01-18T13:08:11.556Z,0.80
2023-01-18T13:10:40.916Z,0.80
2023-01-18T13:13:14.411Z,0.90
2023-01-18T13:15:49.479Z,0.90
2023-01-18T13:18:23.057Z,0.90
2023-01-18T13:21:02.731Z,1.00
2023-01-18T13:23:39.421Z,1.00
2023-01-18T13:26:21.901Z,1.00
2023-01-18T13:28:49.724Z,1.00
2023-01-18T13:31:17.709Z,1.00
2023-01-18T13:33:46.273Z,1.10
2023-01-18T13:36:17.181Z,1.10
2023-01-18T13:38:51.623Z,1.10
2023-01-18T13:41:25.941Z,1.10
2023-01-18T13:44:05.624Z,1.10
2023-01-18T13:46:36.383Z,1.20
2023-01-18T13:49:37.963Z,1.20
2023-01-18T13:52:29.715Z,1.20
2023-01-18T13:55:05.227Z,1.30
2023-01-18T13:57:35.778Z,1.20
2023-01-18T14:00:05.972Z,1.20
2023-01-18T14:02:42.021Z,1.30
2023-01-18T14:05:19.657Z,1.30
2023-01-18T14:07:51.088Z,1.20
2023-01-18T14:10:26.169Z,1.20
2023-01-18T14:12:57.077Z,1.20
2023-01-18T14:15:29.845Z,1.20
2023-01-18T14:17:59.402Z,1.20
2023-01-18T14:21:04.416Z,1.20
2023-01-18T14:23:55.479Z,1.20
2023-01-18T14:26:28.109Z,1.20
2023-01-18T14:29:00.716Z,1.30
2023-01-18T14:31:32.596Z,1.30
2023-01-18T14:34:35.942Z,1.30
2023-01-18T14:37:04.589Z,1.30
2023-01-18T14:39:33.181Z,1.30
2023-01-18T14:42:03.695Z,1.40
2023-01-18T14:44:57.016Z,1.40
2023-01-18T14:47:30.302Z,1.40
2023-01-18T14:49:58.617Z,1.40
2023-01-18T14:52:31.348Z,1.30
2023-01-18T14:54:59.183Z,1.30
2023-01-18T14:57:26.940Z,1.30
2023-01-18T14:59:57.881Z,1.30
2023-01-18T15:02:29.004Z,1.30
2023-01-18T15:05:11.564Z,1.30
2023-01-18T15:07:40.385Z,1.30
2023-01-18T15:10:09.595Z,1.30
2023-01-18T15:12:39.563Z,1.40
2023-01-18T15:15:17.999Z,1.30
2023-01-18T15:17:45.753Z,1.30
2023-01-18T15:20:16.007Z,1.30
2023-01-18T15:22:43.940Z,1.30
2023-01-18T15:25:20.383Z,1.30
2023-01-18T15:27:51.213Z,1.20
2023-01-18T15:30:23.199Z,1.20
2023-01-18T15:32:54.534Z,1.20
2023-01-18T15:35:25.270Z,1.20
2023-01-18T15:37:53.098Z,1.10
2023-01-18T15:40:27.933Z,1.10
2023-01-18T15:43:01.644Z,1.00
2023-01-18T15:45:33.073Z,1.00
2023-01-18T15:48:06.540Z,1.00
2023-01-18T15:50:38.049Z,1.00
2023-01-18T15:53:11.962Z,1.00
2023-01-18T15:55:46.926Z,0.90
2023-01-18T15:58:19.785Z,0.90
2023-01-18T16:00:56.249Z,0.90
2023-01-18T16:03:26.419Z,0.80
2023-01-18T16:06:16.716Z,0.80
2023-01-18T16:08:58.634Z,0.70
2023-01-18T16:11:30.166Z,0.70
2023-01-18T16:13:59.310Z,0.60
2023-01-18T16:16:29.556Z,0.60
2023-01-18T16:19:04.914Z,0.50
2023-01-18T16:21:46.153Z,0.50
2023-01-18T16:24:27.786Z,0.40
2023-01-18T16:26:56.728Z,0.40
2023-01-18T16:29:24.798Z,0.30
2023-01-18T16:32:13.998Z,0.30
2023-01-18T16:34:41.696Z,0.20
2023-01-18T16:37:09.448Z,0.30
2023-01-18T16:39:39.626Z,0.20
2023-01-18T16:42:07.809Z,0.10
2023-01-18T16:44:35.965Z,0.10
2023-01-18T16:47:05.192Z,0.10
2023-01-18T16:49:32.999Z,0.00
2023-01-18T16:52:00.790Z,0.00
2023-01-18T16:54:28.516Z,0.00
2023-01-18T16:56:56.214Z,-0.10
2023-01-18T16:59:23.983Z,-0.10
2023-01-18T17:01:52.031Z,-0.10
2023-01-18T17:04:21.136Z,-0.10
2023-01-18T17:06:48.837Z,-0.20
2023-01-18T17:09:20.999Z,-0.20
2023-01-18T17:11:48.791Z,-0.30
2023-01-18T17:14:17.134Z,-0.30
2023-01-18T17:16:45.644Z,-0.30
2023-01-18T17:19:14.351Z,-0.30
2023-01-18T17:21:44.751Z,-0.40
2023-01-18T17:24:13.658Z,-0.40
2023-01-18T17:26:42.577Z,-0.50
2023-01-18T17:29:13.456Z,-0.50
2023-01-18T17:31:48.052Z,-0.50
2023-01-18T17:34:26.714Z,-0.50
2023-01-18T17:36:57.983Z,-0.60
2023-01-18T17:39:36.899Z,-0.60
2023-01-18T17:42:18.904Z,-0.60
2023-01-18T17:44:50.583Z,-0.70
2023-01-18T17:47:18.270Z,-0.70
2023-01-18T17:49:45.962Z,-0.70
2023-01-18T17:52:15.010Z,-0.70
2023-01-18T17:54:42.734Z,-0.80
2023-01-18T17:57:10.439Z,-0.80
2023-01-18T17:59:38.154Z,-0.80
2023-01-18T18:02:05.879Z,-0.90
2023-01-18T18:04:33.621Z,-0.90
2023-01-18T18:07:01.381Z,-0.90
2023-01-18T18:09:30.502Z,-1.00
2023-01-18T18:11:58.235Z,-1.00
2023-01-18T18:14:25.982Z,-1.00
2023-01-18T18:16:53.745Z,-1.00
2023-01-18T18:19:21.472Z,-1.10
2023-01-18T18:21:50.686Z,-1.10
2023-01-18T18:24:18.433Z,-1.10
2023-01-18T18:26:47.486Z,-1.10
2023-01-18T18:29:15.175Z,-1.10
2023-01-18T18:31:43.828Z,-1.10
2023-01-18T18:34:11.907Z,-1.10
2023-01-18T18:36:40.751Z,-1.10
2023-01-18T18:39:08.715Z,-1.00
2023-01-18T18:41:36.607Z,-1.00
2023-01-18T18:44:06.457Z,-1.00
2023-01-18T18:46:34.165Z,-1.00
2023-01-18T18:49:01.916Z,-1.00
2023-01-18T18:51:29.617Z,-1.00
2023-01-18T18:53:57.354Z,-1.10
2023-01-18T18:56:25.207Z,-1.10
2023-01-18T18:58:52.912Z,-1.10
2023-01-18T19:01:24.095Z,-1.10
2023-01-18T19:03:53.568Z,-1.10
2023-01-18T19:06:22.675Z,-1.20
2023-01-18T19:08:50.972Z,-1.20
2023-01-18T19:11:18.888Z,-1.20
2023-01-18T19:13:49.437Z,-1.20
2023-01-18T19:16:17.656Z,-1.20
2023-01-18T19:18:46.775Z,-1.20
2023-01-18T19:21:14.465Z,-1.30
2023-01-18T19:23:42.179Z,-1.30
2023-01-18T19:26:10.027Z,-1.30
2023-01-18T19:28:37.782Z,-1.30
2023-01-18T19:31:06.720Z,-1.40
2023-01-18T19:33:34.727Z,-1.40
2023-01-18T19:36:10.048Z,-1.40
2023-01-18T19:38:45.789Z,-1.40
2023-01-18T19:41:14.849Z,-1.40
2023-01-18T19:43:43.020Z,-1.40
2023-01-18T19:46:12.626Z,-1.40
2023-01-18T19:48:40.428Z,-1.40
2023-01-18T19:51:21.095Z,-1.40
2023-01-18T19:53:50.070Z,-1.40
2023-01-18T19:56:17.774Z,-1.40
2023-01-18T19:58:45.471Z,-1.30
2023-01-18T20:01:23.447Z,-1.30
2023-01-18T20:03:58.236Z,-1.30
2023-01-18T20:06:27.288Z,-1.30
2023-01-18T20:08:54.973Z,-1.40
2023-01-18T20:11:22.697Z,-1.40
2023-01-18T20:13:51.290Z,-1.30
2023-01-18T20:16:20.197Z,-1.30
2023-01-18T20:18:48.666Z,-1.40
2023-01-18T20:21:18.942Z,-1.40
2023-01-18T20:23:48.390Z,-1.40
2023-01-18T20:26:22.124Z,-1.40
2023-01-18T20:28:55.849Z,-1.40
2023-01-18T20:31:23.828Z,-1.40
2023-01-18T20:33:51.626Z,-1.40
2023-01-18T20:36:19.448Z,-1.40
2023-01-18T20:38:48.464Z,-1.40
2023-01-18T20:41:16.297Z,-1.40
2023-01-18T20:43:44.169Z,-1.40
2023-01-18T20:46:12.334Z,-1.30
2023-01-18T20:48:40.458Z,-1.30
2023-01-18T20:51:08.570Z,-1.30
2023-01-18T20:53:37.773Z,-1.20
2023-01-18T20:56:17.090Z,-1.20
2023-01-18T20:58:55.660Z,-1.10
2023-01-18T21:01:23.520Z,-1.10
2023-01-18T21:03:55.115Z,-1.10
2023-01-18T21:06:23.479Z,-1.10
2023-01-18T21:08:52.901Z,-1.00
2023-01-18T21:11:22.808Z,-1.00
2023-01-18T21:13:51.604Z,-0.90
2023-01-18T21:16:19.806Z,-0.90
2023-01-18T21:18:47.621Z,-0.90
2023-01-18T21:21:15.387Z,-0.90
2023-01-18T21:23:43.094Z,-0.80
2023-01-18T21:26:12.738Z,-0.80
2023-01-18T21:28:42.271Z,-0.80
2023-01-18T21:31:10.362Z,-0.70
2023-01-18T21:33:39.178Z,-0.60
2023-01-18T21:36:08.877Z,-0.70
2023-01-18T21:38:37.309Z,-0.70
2023-01-18T21:41:19.197Z,-0.60
2023-01-18T21:44:05.990Z,-0.60
2023-01-18T21:46:33.710Z,-0.50
2023-01-18T21:49:03.778Z,-0.50
2023-01-18T21:51:48.967Z,-0.50
2023-01-18T21:54:16.825Z,-0.50
2023-01-18T21:56:45.210Z,-0.50
2023-01-18T21:59:15.052Z,-0.40
2023-01-18T22:01:44.283Z,-0.40
2023-01-18T22:04:31.395Z,-0.40
2023-01-18T22:07:00.031Z,-0.40
2023-01-18T22:09:29.129Z,-0.40
2023-01-18T22:11:57.465Z,-0.30
2023-01-18T22:14:26.939Z,-0.30
2023-01-18T22:16:54.986Z,-0.30
2023-01-18T22:19:22.784Z,-0.30
2023-01-18T22:21:51.069Z,-0.30
2023-01-18T22:24:19.766Z,-0.20
2023-01-18T22:26:47.673Z,-0.10
2023-01-18T22:29:15.583Z,-0.20
2023-01-18T22:31:44.618Z,-0.20
2023-01-18T22:34:18.255Z,-0.20
2023-01-18T22:36:45.956Z,-0.10
2023-01-18T22:39:13.776Z,-0.10
2023-01-18T22:41:41.557Z,-0.10
2023-01-18T22:44:09.755Z,-0.10
2023-01-18T22:46:37.461Z,-0.10
2023-01-18T22:49:06.509Z,-0.10
2023-01-18T22:51:35.225Z,0.00
2023-01-18T22:54:02.958Z,0.00
2023-01-18T22:56:30.669Z,0.00
2023-01-18T22:58:58.409Z,0.00
2023-01-18T23:01:27.964Z,0.00
2023-01-18T23:03:58.192Z,0.00
2023-01-18T23:06:28.856Z,0.00
2023-01-18T23:08:57.275Z,0.10
2023-01-18T23:11:27.316Z,0.00
2023-01-18T23:14:28.791Z,0.00
2023-01-18T23:17:14.306Z,0.00
2023-01-18T23:22:38.493Z,0.10
2023-01-18T23:25:07.100Z,0.10
2023-01-18T23:27:34.857Z,0.10
2023-01-18T23:30:02.865Z,0.10
2023-01-18T23:32:31.446Z,0.10
2023-01-18T23:34:59.865Z,0.10
2023-01-18T23:37:28.314Z,0.20
2023-01-18T23:40:15.152Z,0.20
2023-01-18T23:43:00.673Z,0.20
2023-01-18T23:45:45.922Z,0.20
2023-01-18T23:48:33.156Z,0.20
2023-01-18T23:51:19.529Z,0.20
2023-01-18T23:54:05.238Z,0.20
2023-01-18T23:56:34.501Z,0.20
2023-01-18T23:59:02.263Z,0.20
